createdAt,value
2018-09-19T00:00:45.588Z,1003.31
2018-09-19T00:01:45.572Z,1003.33
2018-09-19T00:02:45.556Z,1003.28
2018-09-19T00:03:45.531Z,1003.32
2018-09-19T00:04:45.541Z,1003.37
2018-09-19T00:05:45.504Z,1003.37
2018-09-19T00:06:45.521Z,1003.40
2018-09-19T00:07:45.458Z,1003.39
2018-09-19T00:08:45.440Z,1003.42
2018-09-19T00:09:45.425Z,1003.41
2018-09-19T00:10:45.406Z,1003.44
2018-09-19T00:11:45.404Z,1003.44
2018-09-19T00:12:45.376Z,1003.38
2018-09-19T00:13:45.365Z,1003.38
2018-09-19T00:14:45.338Z,1003.36
2018-09-19T00:15:45.328Z,1003.37
2018-09-19T00:16:45.298Z,1003.32
2018-09-19T00:17:45.301Z,1003.36
2018-09-19T00:18:45.279Z,1003.36
2018-09-19T00:19:45.256Z,1003.39
2018-09-19T00:20:45.243Z,1003.37
2018-09-19T00:21:45.207Z,1003.39
2018-09-19T00:22:45.209Z,1003.36
2018-09-19T00:23:45.177Z,1003.37
2018-09-19T00:24:45.158Z,1003.34
2018-09-19T00:25:45.141Z,1003.40
2018-09-19T00:26:45.125Z,1003.39
2018-09-19T00:27:45.101Z,1003.37
2018-09-19T00:28:45.095Z,1003.36
2018-09-19T00:29:45.067Z,1003.35
2018-09-19T00:30:45.058Z,1003.40
2018-09-19T00:31:45.036Z,1003.36
2018-09-19T00:32:45.020Z,1003.39
2018-09-19T00:33:45.001Z,1003.43
2018-09-19T00:34:45.031Z,1003.39
2018-09-19T00:35:45.017Z,1003.37
2018-09-19T00:36:44.952Z,1003.36
2018-09-19T00:37:44.920Z,1003.37
2018-09-19T00:38:44.911Z,1003.41
2018-09-19T00:39:44.904Z,1003.41
2018-09-19T00:40:44.877Z,1003.42
2018-09-19T00:41:44.873Z,1003.42
2018-09-19T00:42:44.839Z,1003.41
2018-09-19T00:43:44.817Z,1003.42
2018-09-19T00:44:44.800Z,1003.41
2018-09-19T00:45:44.781Z,1003.43
2018-09-19T00:46:44.767Z,1003.46
2018-09-19T00:47:44.746Z,1003.44
2018-09-19T00:48:44.730Z,1003.42
2018-09-19T00:49:44.709Z,1003.45
2018-09-19T00:50:44.693Z,1003.43
2018-09-19T00:51:44.677Z,1003.42
2018-09-19T00:52:44.659Z,1003.45
2018-09-19T00:53:44.630Z,1003.44
2018-09-19T00:54:44.618Z,1003.44
2018-09-19T00:55:44.600Z,1003.46
2018-09-19T00:56:44.601Z,1003.48
2018-09-19T00:57:44.563Z,1003.47
2018-09-19T00:58:44.546Z,1003.48
2018-09-19T00:59:44.526Z,1003.46
2018-09-19T01:00:44.509Z,1003.47
2018-09-19T01:01:44.494Z,1003.44
2018-09-19T01:02:44.468Z,1003.42
2018-09-19T01:03:44.455Z,1003.42
2018-09-19T01:04:44.437Z,1003.40
2018-09-19T01:05:44.421Z,1003.41
2018-09-19T01:06:44.394Z,1003.39
2018-09-19T01:07:44.382Z,1003.41
2018-09-19T01:08:44.362Z,1003.41
2018-09-19T01:09:44.344Z,1003.42
2018-09-19T01:10:44.340Z,1003.47
2018-09-19T01:11:44.315Z,1003.42
2018-09-19T01:12:44.306Z,1003.44
2018-09-19T01:13:44.270Z,1003.45
2018-09-19T01:14:44.252Z,1003.43
2018-09-19T01:15:44.229Z,1003.44
2018-09-19T01:16:44.217Z,1003.41
2018-09-19T01:17:44.201Z,1003.46
2018-09-19T01:18:44.210Z,1003.45
2018-09-19T01:19:44.164Z,1003.44
2018-09-19T01:20:44.146Z,1003.48
2018-09-19T01:21:44.129Z,1003.53
2018-09-19T01:22:44.109Z,1003.53
2018-09-19T01:23:44.093Z,1003.53
2018-09-19T01:24:44.069Z,1003.53
2018-09-19T01:25:44.052Z,1003.55
2018-09-19T01:26:44.032Z,1003.56
2018-09-19T01:27:44.012Z,1003.56
2018-09-19T01:28:44.041Z,1003.57
2018-09-19T01:29:43.980Z,1003.60
2018-09-19T01:30:43.956Z,1003.60
2018-09-19T01:31:43.939Z,1003.59
2018-09-19T01:32:43.924Z,1003.56
2018-09-19T01:33:43.903Z,1003.57
2018-09-19T01:34:43.886Z,1003.52
2018-09-19T01:35:43.866Z,1003.54
2018-09-19T01:36:43.849Z,1003.57
2018-09-19T01:37:43.836Z,1003.57
2018-09-19T01:38:43.813Z,1003.59
2018-09-19T01:39:43.782Z,1003.54
2018-09-19T01:40:43.785Z,1003.59
2018-09-19T01:41:43.801Z,1003.57
2018-09-19T01:42:43.736Z,1003.59
2018-09-19T01:43:43.719Z,1003.57
2018-09-19T01:44:43.700Z,1003.60
2018-09-19T01:45:43.680Z,1003.60
2018-09-19T01:46:43.664Z,1003.59
2018-09-19T01:47:43.650Z,1003.55
2018-09-19T01:48:43.623Z,1003.59
2018-09-19T01:49:43.608Z,1003.63
2018-09-19T01:50:43.589Z,1003.63
2018-09-19T01:51:43.566Z,1003.64
2018-09-19T01:52:43.552Z,1003.62
2018-09-19T01:53:43.532Z,1003.66
2018-09-19T01:54:43.517Z,1003.67
2018-09-19T01:55:43.498Z,1003.63
2018-09-19T01:56:43.476Z,1003.67
2018-09-19T01:57:43.462Z,1003.63
2018-09-19T01:58:43.438Z,1003.64
2018-09-19T01:59:43.429Z,1003.65
2018-09-19T02:00:43.402Z,1003.65
2018-09-19T02:01:43.387Z,1003.65
2018-09-19T02:02:43.382Z,1003.68
2018-09-19T02:03:43.348Z,1003.67
2018-09-19T02:04:43.325Z,1003.69
2018-09-19T02:05:43.312Z,1003.74
2018-09-19T02:06:43.289Z,1003.69
2018-09-19T02:07:43.271Z,1003.69
2018-09-19T02:08:43.251Z,1003.66
2018-09-19T02:09:43.240Z,1003.68
2018-09-19T02:10:43.212Z,1003.63
2018-09-19T02:11:43.197Z,1003.63
2018-09-19T02:12:43.177Z,1003.65
2018-09-19T02:13:43.161Z,1003.61
2018-09-19T02:14:43.138Z,1003.63
2018-09-19T02:15:43.118Z,1003.62
2018-09-19T02:16:43.107Z,1003.58
2018-09-19T02:17:43.089Z,1003.64
2018-09-19T02:18:43.063Z,1003.63
2018-09-19T02:19:43.048Z,1003.61
2018-09-19T02:20:43.026Z,1003.57
2018-09-19T02:21:43.005Z,1003.59
2018-09-19T02:22:42.988Z,1003.58
2018-09-19T02:23:42.971Z,1003.55
2018-09-19T02:24:42.947Z,1003.55
2018-09-19T02:25:42.931Z,1003.59
2018-09-19T02:26:42.918Z,1003.56
2018-09-19T02:27:42.930Z,1003.61
2018-09-19T02:28:42.919Z,1003.59
2018-09-19T02:29:42.860Z,1003.59
2018-09-19T02:30:42.840Z,1003.59
2018-09-19T02:31:42.821Z,1003.58
2018-09-19T02:32:42.801Z,1003.60
2018-09-19T02:33:42.784Z,1003.62
2018-09-19T02:34:42.769Z,1003.64
2018-09-19T02:35:42.742Z,1003.61
2018-09-19T02:36:42.733Z,1003.64
2018-09-19T02:37:42.712Z,1003.63
2018-09-19T02:38:42.689Z,1003.62
2018-09-19T02:39:42.661Z,1003.65
2018-09-19T02:40:42.661Z,1003.61
2018-09-19T02:41:42.631Z,1003.59
2018-09-19T02:42:42.632Z,1003.61
2018-09-19T02:43:42.606Z,1003.57
2018-09-19T02:44:42.577Z,1003.54
2018-09-19T02:45:42.556Z,1003.58
2018-09-19T02:46:42.538Z,1003.58
2018-09-19T02:47:42.535Z,1003.61
2018-09-19T02:48:42.501Z,1003.54
2018-09-19T02:49:42.485Z,1003.55
2018-09-19T02:50:42.461Z,1003.52
2018-09-19T02:51:42.434Z,1003.50
2018-09-19T02:52:42.424Z,1003.47
2018-09-19T02:53:42.403Z,1003.45
2018-09-19T02:54:42.393Z,1003.48
2018-09-19T02:55:42.392Z,1003.47
2018-09-19T02:56:42.349Z,1003.46
2018-09-19T02:57:42.333Z,1003.48
2018-09-19T02:58:42.304Z,1003.52
2018-09-19T02:59:42.305Z,1003.54
2018-09-19T03:00:42.282Z,1003.51
2018-09-19T03:01:42.278Z,1003.51
2018-09-19T03:02:42.233Z,1003.53
2018-09-19T03:03:42.232Z,1003.54
2018-09-19T03:05:42.183Z,1003.55
2018-09-19T03:06:42.158Z,1003.56
2018-09-19T03:07:42.142Z,1003.54
2018-09-19T03:08:42.120Z,1003.52
2018-09-19T03:09:42.101Z,1003.52
2018-09-19T03:10:42.086Z,1003.48
2018-09-19T03:11:42.057Z,1003.45
2018-09-19T03:12:42.051Z,1003.45
2018-09-19T03:13:42.028Z,1003.44
2018-09-19T03:14:42.006Z,1003.47
2018-09-19T03:15:41.988Z,1003.45
2018-09-19T03:16:41.971Z,1003.47
2018-09-19T03:17:42.087Z,1003.44
2018-09-19T03:18:41.930Z,1003.46
2018-09-19T03:19:41.910Z,1003.48
2018-09-19T03:20:41.907Z,1003.45
2018-09-19T03:21:41.882Z,1003.47
2018-09-19T03:22:41.857Z,1003.45
2018-09-19T03:23:41.830Z,1003.46
2018-09-19T03:24:41.820Z,1003.42
2018-09-19T03:25:41.819Z,1003.43
2018-09-19T03:26:41.783Z,1003.42
2018-09-19T03:27:41.764Z,1003.41
2018-09-19T03:28:41.739Z,1003.46
2018-09-19T03:29:41.723Z,1003.45
2018-09-19T03:30:41.699Z,1003.46
2018-09-19T03:31:41.680Z,1003.44
2018-09-19T03:32:41.658Z,1003.45
2018-09-19T03:33:41.647Z,1003.49
2018-09-19T03:34:41.629Z,1003.46
2018-09-19T03:35:41.611Z,1003.48
2018-09-19T03:36:41.595Z,1003.49
2018-09-19T03:37:41.570Z,1003.55
2018-09-19T03:38:41.558Z,1003.56
2018-09-19T03:39:41.527Z,1003.56
2018-09-19T03:40:41.541Z,1003.53
2018-09-19T03:41:41.498Z,1003.54
2018-09-19T03:42:41.476Z,1003.48
2018-09-19T03:43:41.465Z,1003.46
2018-09-19T03:44:41.440Z,1003.51
2018-09-19T03:45:41.412Z,1003.48
2018-09-19T03:46:41.397Z,1003.50
2018-09-19T03:47:41.374Z,1003.51
2018-09-19T03:48:41.376Z,1003.49
2018-09-19T03:49:41.347Z,1003.51
2018-09-19T03:50:41.327Z,1003.53
2018-09-19T03:51:41.298Z,1003.54
2018-09-19T03:52:41.277Z,1003.55
2018-09-19T03:53:41.275Z,1003.57
2018-09-19T03:54:41.251Z,1003.57
2018-09-19T03:55:41.224Z,1003.57
2018-09-19T03:56:41.206Z,1003.56
2018-09-19T03:57:41.195Z,1003.58
2018-09-19T03:58:41.177Z,1003.59
2018-09-19T03:59:41.172Z,1003.59
2018-09-19T04:00:41.135Z,1003.65
2018-09-19T04:01:41.110Z,1003.62
2018-09-19T04:02:41.095Z,1003.62
2018-09-19T04:03:41.069Z,1003.62
2018-09-19T04:04:41.056Z,1003.61
2018-09-19T04:05:41.043Z,1003.58
2018-09-19T04:06:41.024Z,1003.55
2018-09-19T04:07:40.999Z,1003.58
2018-09-19T04:08:40.985Z,1003.55
2018-09-19T04:09:40.960Z,1003.56
2018-09-19T04:10:40.947Z,1003.56
2018-09-19T04:11:40.921Z,1003.56
2018-09-19T04:12:40.907Z,1003.55
2018-09-19T04:13:40.884Z,1003.56
2018-09-19T04:14:40.867Z,1003.61
2018-09-19T04:15:40.844Z,1003.57
2018-09-19T04:16:40.837Z,1003.64
2018-09-19T04:17:40.815Z,1003.64
2018-09-19T04:18:40.795Z,1003.65
2018-09-19T04:19:40.767Z,1003.65
2018-09-19T04:20:40.767Z,1003.69
2018-09-19T04:21:40.750Z,1003.69
2018-09-19T04:22:40.715Z,1003.67
2018-09-19T04:23:40.695Z,1003.70
2018-09-19T04:24:40.687Z,1003.72
2018-09-19T04:25:40.658Z,1003.68
2018-09-19T04:26:40.641Z,1003.75
2018-09-19T04:27:40.615Z,1003.69
2018-09-19T04:28:40.595Z,1003.71
2018-09-19T04:29:40.582Z,1003.69
2018-09-19T04:30:40.565Z,1003.73
2018-09-19T04:31:40.544Z,1003.72
2018-09-19T04:32:40.518Z,1003.71
2018-09-19T04:33:40.497Z,1003.72
2018-09-19T04:34:40.482Z,1003.70
2018-09-19T04:35:40.459Z,1003.74
2018-09-19T04:36:40.446Z,1003.73
2018-09-19T04:37:40.423Z,1003.73
2018-09-19T04:38:40.405Z,1003.71
2018-09-19T04:39:40.387Z,1003.69
2018-09-19T04:40:40.372Z,1003.68
2018-09-19T04:41:40.354Z,1003.66
2018-09-19T04:42:40.322Z,1003.65
2018-09-19T04:43:40.319Z,1003.63
2018-09-19T04:44:40.289Z,1003.63
2018-09-19T04:45:40.283Z,1003.65
2018-09-19T04:46:40.259Z,1003.62
2018-09-19T04:47:40.229Z,1003.63
2018-09-19T04:48:40.209Z,1003.63
2018-09-19T04:49:40.193Z,1003.62
2018-09-19T04:50:40.174Z,1003.60
2018-09-19T04:51:40.214Z,1003.60
2018-09-19T04:52:40.141Z,1003.58
2018-09-19T04:53:40.132Z,1003.58
2018-09-19T04:54:40.106Z,1003.60
2018-09-19T04:55:40.079Z,1003.55
2018-09-19T04:56:40.063Z,1003.58
2018-09-19T04:57:40.041Z,1003.56
2018-09-19T04:58:40.026Z,1003.58
2018-09-19T04:59:40.005Z,1003.56
2018-09-19T05:00:39.989Z,1003.55
2018-09-19T05:01:39.967Z,1003.57
2018-09-19T05:02:39.953Z,1003.60
2018-09-19T05:03:39.928Z,1003.58
2018-09-19T05:04:39.914Z,1003.58
2018-09-19T05:05:39.904Z,1003.60
2018-09-19T05:06:39.871Z,1003.61
2018-09-19T05:07:39.852Z,1003.67
2018-09-19T05:08:39.835Z,1003.66
2018-09-19T05:09:39.813Z,1003.64
2018-09-19T05:10:39.795Z,1003.63
2018-09-19T05:11:39.776Z,1003.61
2018-09-19T05:12:39.754Z,1003.57
2018-09-19T05:13:39.741Z,1003.60
2018-09-19T05:14:39.719Z,1003.59
2018-09-19T05:15:39.701Z,1003.60
2018-09-19T05:16:39.689Z,1003.63
2018-09-19T05:17:39.670Z,1003.60
2018-09-19T05:18:39.649Z,1003.61
2018-09-19T05:19:39.620Z,1003.57
2018-09-19T05:20:39.606Z,1003.62
2018-09-19T05:21:39.598Z,1003.62
2018-09-19T05:22:39.570Z,1003.65
2018-09-19T05:23:39.550Z,1003.64
2018-09-19T05:24:39.536Z,1003.65
2018-09-19T05:25:39.510Z,1003.64
2018-09-19T05:26:39.492Z,1003.64
2018-09-19T05:27:39.477Z,1003.66
2018-09-19T05:28:39.455Z,1003.64
2018-09-19T05:29:39.434Z,1003.63
2018-09-19T05:30:39.410Z,1003.69
2018-09-19T05:31:39.413Z,1003.71
2018-09-19T05:32:39.380Z,1003.68
2018-09-19T05:33:39.357Z,1003.69
2018-09-19T05:34:39.352Z,1003.65
2018-09-19T05:35:39.323Z,1003.65
2018-09-19T05:36:39.474Z,1003.61
2018-09-19T05:37:39.285Z,1003.64
2018-09-19T05:38:39.266Z,1003.62
2018-09-19T05:39:39.243Z,1003.65
2018-09-19T05:40:39.229Z,1003.66
2018-09-19T05:41:39.209Z,1003.68
2018-09-19T05:42:39.201Z,1003.68
2018-09-19T05:43:39.171Z,1003.66
2018-09-19T05:44:39.152Z,1003.68
2018-09-19T05:45:39.400Z,1003.65
2018-09-19T05:46:39.123Z,1003.69
2018-09-19T05:47:39.088Z,1003.69
2018-09-19T05:48:39.074Z,1003.71
2018-09-19T05:49:39.060Z,1003.70
2018-09-19T05:50:39.044Z,1003.68
2018-09-19T05:51:39.018Z,1003.71
2018-09-19T05:52:39.007Z,1003.67
2018-09-19T05:53:38.984Z,1003.66
2018-09-19T05:54:39.044Z,1003.67
2018-09-19T05:55:38.940Z,1003.69
2018-09-19T05:56:38.926Z,1003.64
2018-09-19T05:57:38.908Z,1003.58
2018-09-19T05:58:38.888Z,1003.57
2018-09-19T05:59:38.870Z,1003.60
2018-09-19T06:00:38.850Z,1003.56
2018-09-19T06:01:38.835Z,1003.61
2018-09-19T06:02:38.817Z,1003.56
2018-09-19T06:03:38.792Z,1003.57
2018-09-19T06:04:38.777Z,1003.56
2018-09-19T06:05:38.756Z,1003.52
2018-09-19T06:06:38.737Z,1003.50
2018-09-19T06:07:38.720Z,1003.46
2018-09-19T06:08:38.704Z,1003.42
2018-09-19T06:09:38.682Z,1003.43
2018-09-19T06:10:38.664Z,1003.44
2018-09-19T06:11:38.643Z,1003.46
2018-09-19T06:12:38.643Z,1003.44
2018-09-19T06:13:38.606Z,1003.47
2018-09-19T06:14:38.588Z,1003.47
2018-09-19T06:15:38.565Z,1003.49
2018-09-19T06:16:38.560Z,1003.45
2018-09-19T06:17:38.534Z,1003.47
2018-09-19T06:18:38.514Z,1003.50
2018-09-19T06:19:38.499Z,1003.54
2018-09-19T06:20:38.481Z,1003.54
2018-09-19T06:21:38.460Z,1003.49
2018-09-19T06:22:38.446Z,1003.50
2018-09-19T06:23:38.423Z,1003.51
2018-09-19T06:24:38.405Z,1003.56
2018-09-19T06:25:38.386Z,1003.49
2018-09-19T06:26:38.374Z,1003.53
2018-09-19T06:27:38.351Z,1003.55
2018-09-19T06:28:38.330Z,1003.52
2018-09-19T06:29:38.318Z,1003.51
2018-09-19T06:30:38.297Z,1003.55
2018-09-19T06:31:38.276Z,1003.52
2018-09-19T06:32:38.270Z,1003.45
2018-09-19T06:33:38.243Z,1003.46
2018-09-19T06:34:38.225Z,1003.48
2018-09-19T06:35:38.204Z,1003.45
2018-09-19T06:36:38.188Z,1003.47
2018-09-19T06:37:38.173Z,1003.49
2018-09-19T06:38:38.153Z,1003.50
2018-09-19T06:39:38.134Z,1003.48
2018-09-19T06:40:38.172Z,1003.46
2018-09-19T06:41:38.100Z,1003.46
2018-09-19T06:42:38.106Z,1003.45
2018-09-19T06:43:38.065Z,1003.43
2018-09-19T06:44:38.047Z,1003.42
2018-09-19T06:45:38.091Z,1003.37
2018-09-19T06:46:38.014Z,1003.33
2018-09-19T06:47:37.996Z,1003.33
2018-09-19T06:48:37.980Z,1003.29
2018-09-19T06:49:37.963Z,1003.31
2018-09-19T06:50:37.943Z,1003.27
2018-09-19T06:51:37.933Z,1003.30
2018-09-19T06:52:37.914Z,1003.32
2018-09-19T06:53:37.895Z,1003.30
2018-09-19T06:54:37.881Z,1003.28
2018-09-19T06:55:37.873Z,1003.31
2018-09-19T06:56:37.886Z,1003.28
2018-09-19T06:57:37.833Z,1003.32
2018-09-19T06:58:37.812Z,1003.33
2018-09-19T06:59:37.879Z,1003.33
2018-09-19T07:00:37.788Z,1003.33
2018-09-19T07:01:38.120Z,1003.31
2018-09-19T07:02:37.758Z,1003.33
2018-09-19T07:03:37.732Z,1003.30
2018-09-19T07:04:37.727Z,1003.33
2018-09-19T07:05:37.748Z,1003.39
2018-09-19T07:06:37.692Z,1003.36
2018-09-19T07:07:37.817Z,1003.39
2018-09-19T07:08:37.656Z,1003.46
2018-09-19T07:09:37.641Z,1003.41
2018-09-19T07:10:37.704Z,1003.39
2018-09-19T07:11:37.608Z,1003.40
2018-09-19T07:12:37.997Z,1003.38
2018-09-19T07:13:37.577Z,1003.43
2018-09-19T07:14:37.569Z,1003.43
2018-09-19T07:15:37.548Z,1003.44
2018-09-19T07:16:37.529Z,1003.40
2018-09-19T07:17:37.533Z,1003.41
2018-09-19T07:18:37.509Z,1003.45
2018-09-19T07:19:37.486Z,1003.49
2018-09-19T07:20:37.550Z,1003.51
2018-09-19T07:21:37.457Z,1003.48
2018-09-19T07:22:37.442Z,1003.50
2018-09-19T07:23:37.455Z,1003.53
2018-09-19T07:24:37.415Z,1003.53
2018-09-19T07:25:37.393Z,1003.53
2018-09-19T07:26:37.383Z,1003.57
2018-09-19T07:27:37.369Z,1003.57
2018-09-19T07:28:37.351Z,1003.54
2018-09-19T07:29:37.341Z,1003.52
2018-09-19T07:30:37.382Z,1003.51
2018-09-19T07:31:37.305Z,1003.55
2018-09-19T07:32:37.294Z,1003.61
2018-09-19T07:33:37.275Z,1003.60
2018-09-19T07:34:37.258Z,1003.61
2018-09-19T07:35:37.296Z,1003.61
2018-09-19T07:36:37.372Z,1003.57
2018-09-19T07:37:37.207Z,1003.62
2018-09-19T07:38:37.197Z,1003.66
2018-09-19T07:39:37.182Z,1003.63
2018-09-19T07:40:37.173Z,1003.67
2018-09-19T07:41:37.153Z,1003.67
2018-09-19T07:42:37.135Z,1003.65
2018-09-19T07:43:37.122Z,1003.64
2018-09-19T07:44:37.571Z,1003.65
2018-09-19T07:45:37.696Z,1003.64
2018-09-19T07:46:37.131Z,1003.70
2018-09-19T07:47:37.067Z,1003.68
2018-09-19T07:48:37.130Z,1003.68
2018-09-19T07:49:37.022Z,1003.68
2018-09-19T07:50:37.012Z,1003.66
2018-09-19T07:51:36.995Z,1003.63
2018-09-19T07:52:36.981Z,1003.68
2018-09-19T07:53:36.963Z,1003.64
2018-09-19T07:54:36.996Z,1003.64
2018-09-19T07:55:37.008Z,1003.61
2018-09-19T07:56:36.937Z,1003.66
2018-09-19T07:57:36.909Z,1003.60
2018-09-19T07:58:36.900Z,1003.62
2018-09-19T07:59:36.883Z,1003.68
2018-09-19T08:00:36.999Z,1003.67
2018-09-19T08:01:36.842Z,1003.80
2018-09-19T08:02:36.831Z,1003.79
2018-09-19T08:03:36.825Z,1003.79
2018-09-19T08:04:37.567Z,1003.82
2018-09-19T08:05:36.784Z,1003.88
2018-09-19T08:06:36.810Z,1003.91
2018-09-19T08:07:36.747Z,1003.89
2018-09-19T08:08:36.742Z,1003.86
2018-09-19T08:09:36.719Z,1003.85
2018-09-19T08:10:36.706Z,1003.82
2018-09-19T08:11:36.686Z,1003.77
2018-09-19T08:12:36.687Z,1003.79
2018-09-19T08:13:36.659Z,1003.73
2018-09-19T08:14:36.723Z,1003.74
2018-09-19T08:15:36.632Z,1003.73
2018-09-19T08:16:36.620Z,1003.73
2018-09-19T08:17:36.605Z,1003.80
2018-09-19T08:18:36.597Z,1003.79
2018-09-19T08:19:36.577Z,1003.82
2018-09-19T08:20:36.573Z,1003.82
2018-09-19T08:21:36.551Z,1003.82
2018-09-19T08:22:36.571Z,1003.82
2018-09-19T08:23:36.525Z,1003.83
2018-09-19T08:24:36.497Z,1003.86
2018-09-19T08:25:36.475Z,1003.89
2018-09-19T08:26:36.466Z,1003.94
2018-09-19T08:27:36.456Z,1003.88
2018-09-19T08:28:36.434Z,1003.85
2018-09-19T08:29:36.423Z,1003.84
2018-09-19T08:30:36.404Z,1003.92
2018-09-19T08:31:36.391Z,1003.87
2018-09-19T08:32:36.378Z,1003.87
2018-09-19T08:33:36.355Z,1003.85
2018-09-19T08:34:36.350Z,1003.81
2018-09-19T08:35:36.344Z,1003.85
2018-09-19T08:36:36.320Z,1003.84
2018-09-19T08:37:36.302Z,1003.90
2018-09-19T08:38:36.302Z,1003.90
2018-09-19T08:39:36.310Z,1003.83
2018-09-19T08:40:36.258Z,1003.84
2018-09-19T08:41:36.243Z,1003.79
2018-09-19T08:42:36.242Z,1003.78
2018-09-19T08:43:36.219Z,1003.77
2018-09-19T08:44:36.219Z,1003.79
2018-09-19T08:45:36.190Z,1003.72
2018-09-19T08:46:36.174Z,1003.75
2018-09-19T08:47:36.177Z,1003.73
2018-09-19T08:48:36.149Z,1003.75
2018-09-19T08:49:36.137Z,1003.77
2018-09-19T08:50:36.189Z,1003.73
2018-09-19T08:51:36.109Z,1003.71
2018-09-19T08:52:36.091Z,1003.70
2018-09-19T08:53:36.072Z,1003.75
2018-09-19T08:54:36.065Z,1003.70
2018-09-19T08:55:36.045Z,1003.70
2018-09-19T08:56:36.037Z,1003.68
2018-09-19T08:57:36.022Z,1003.66
2018-09-19T08:58:36.025Z,1003.62
2018-09-19T08:59:35.995Z,1003.63
2018-09-19T09:00:35.983Z,1003.65
2018-09-19T09:01:35.968Z,1003.62
2018-09-19T09:02:35.952Z,1003.62
2018-09-19T09:03:35.940Z,1003.61
2018-09-19T09:04:35.931Z,1003.58
2018-09-19T09:05:35.914Z,1003.58
2018-09-19T09:06:35.920Z,1003.59
2018-09-19T09:07:35.884Z,1003.62
2018-09-19T09:08:35.869Z,1003.65
2018-09-19T09:09:35.857Z,1003.64
2018-09-19T09:10:35.843Z,1003.62
2018-09-19T09:11:35.829Z,1003.66
2018-09-19T09:12:35.847Z,1003.63
2018-09-19T09:13:35.810Z,1003.63
2018-09-19T09:14:35.785Z,1003.64
2018-09-19T09:15:35.804Z,1003.61
2018-09-19T09:16:35.775Z,1003.62
2018-09-19T09:17:35.747Z,1003.66
2018-09-19T09:18:35.730Z,1003.66
2018-09-19T09:19:35.724Z,1003.69
2018-09-19T09:20:35.707Z,1003.66
2018-09-19T09:21:35.709Z,1003.64
2018-09-19T09:22:35.687Z,1003.63
2018-09-19T09:23:35.670Z,1003.63
2018-09-19T09:24:35.656Z,1003.64
2018-09-19T09:25:35.636Z,1003.65
2018-09-19T09:26:35.632Z,1003.70
2018-09-19T09:27:35.613Z,1003.70
2018-09-19T09:28:35.604Z,1003.73
2018-09-19T09:29:35.595Z,1003.68
2018-09-19T09:30:35.567Z,1003.64
2018-09-19T09:31:35.560Z,1003.62
2018-09-19T09:32:35.552Z,1003.66
2018-09-19T09:33:35.536Z,1003.63
2018-09-19T09:34:35.524Z,1003.61
2018-09-19T09:35:35.508Z,1003.61
2018-09-19T09:36:35.497Z,1003.63
2018-09-19T09:37:35.488Z,1003.65
2018-09-19T09:38:35.473Z,1003.62
2018-09-19T09:39:35.457Z,1003.60
2018-09-19T09:40:35.523Z,1003.65
2018-09-19T09:41:35.432Z,1003.55
2018-09-19T09:42:35.416Z,1003.54
2018-09-19T09:43:35.446Z,1003.57
2018-09-19T09:44:35.400Z,1003.47
2018-09-19T09:45:35.381Z,1003.49
2018-09-19T09:46:35.367Z,1003.49
2018-09-19T09:47:35.343Z,1003.49
2018-09-19T09:48:35.346Z,1003.48
2018-09-19T09:49:35.321Z,1003.48
2018-09-19T09:50:35.312Z,1003.52
2018-09-19T09:51:35.317Z,1003.50
2018-09-19T09:52:35.280Z,1003.52
2018-09-19T09:53:35.277Z,1003.56
2018-09-19T09:54:35.259Z,1003.49
2018-09-19T09:55:35.254Z,1003.49
2018-09-19T09:56:35.236Z,1003.50
2018-09-19T09:57:35.212Z,1003.48
2018-09-19T09:58:35.243Z,1003.43
2018-09-19T09:59:35.213Z,1003.43
2018-09-19T10:00:35.184Z,1003.45
2018-09-19T10:01:35.168Z,1003.40
2018-09-19T10:02:35.157Z,1003.39
2018-09-19T10:03:35.141Z,1003.38
2018-09-19T10:04:35.135Z,1003.33
2018-09-19T10:05:35.113Z,1003.37
2018-09-19T10:06:35.185Z,1003.36
2018-09-19T10:07:35.092Z,1003.40
2018-09-19T10:08:35.084Z,1003.36
2018-09-19T10:09:35.070Z,1003.37
2018-09-19T10:10:35.055Z,1003.42
2018-09-19T10:11:35.043Z,1003.37
2018-09-19T10:12:35.035Z,1003.40
2018-09-19T10:13:35.050Z,1003.38
2018-09-19T10:14:35.005Z,1003.39
2018-09-19T10:15:34.994Z,1003.43
2018-09-19T10:16:34.974Z,1003.43
2018-09-19T10:17:34.960Z,1003.37
2018-09-19T10:18:34.943Z,1003.48
2018-09-19T10:19:34.927Z,1003.42
2018-09-19T10:20:34.919Z,1003.38
2018-09-19T10:21:34.901Z,1003.36
2018-09-19T10:22:34.912Z,1003.37
2018-09-19T10:23:34.888Z,1003.37
2018-09-19T10:24:34.868Z,1003.45
2018-09-19T10:25:34.858Z,1003.44
2018-09-19T10:26:34.857Z,1003.43
2018-09-19T10:27:34.828Z,1003.36
2018-09-19T10:28:34.817Z,1003.42
2018-09-19T10:29:34.871Z,1003.42
2018-09-19T10:30:34.812Z,1003.39
2018-09-19T10:31:34.779Z,1003.45
2018-09-19T10:32:34.771Z,1003.41
2018-09-19T10:33:34.761Z,1003.36
2018-09-19T10:34:34.746Z,1003.40
2018-09-19T10:35:34.797Z,1003.38
2018-09-19T10:36:34.729Z,1003.33
2018-09-19T10:37:34.709Z,1003.32
2018-09-19T10:38:34.700Z,1003.30
2018-09-19T10:39:34.690Z,1003.33
2018-09-19T10:40:34.679Z,1003.30
2018-09-19T10:41:34.657Z,1003.28
2018-09-19T10:42:34.655Z,1003.22
2018-09-19T10:43:34.636Z,1003.22
2018-09-19T10:44:34.632Z,1003.21
2018-09-19T10:45:34.620Z,1003.17
2018-09-19T10:46:34.648Z,1003.15
2018-09-19T10:47:34.625Z,1003.13
2018-09-19T10:48:34.585Z,1003.18
2018-09-19T10:49:34.619Z,1003.14
2018-09-19T10:50:34.558Z,1003.12
2018-09-19T10:51:34.548Z,1003.16
2018-09-19T10:52:34.530Z,1003.17
2018-09-19T10:53:34.534Z,1003.18
2018-09-19T10:54:34.517Z,1003.08
2018-09-19T10:55:34.517Z,1003.15
2018-09-19T10:56:34.495Z,1003.13
2018-09-19T10:57:34.472Z,1003.13
2018-09-19T10:58:34.475Z,1003.09
2018-09-19T10:59:34.473Z,1003.10
2018-09-19T11:00:34.445Z,1003.11
2018-09-19T11:01:34.438Z,1003.13
2018-09-19T11:02:34.424Z,1003.09
2018-09-19T11:03:34.416Z,1003.14
2018-09-19T11:04:34.403Z,1003.15
2018-09-19T11:05:34.394Z,1003.14
2018-09-19T11:06:34.383Z,1003.12
2018-09-19T11:07:34.376Z,1003.11
2018-09-19T11:08:34.365Z,1003.12
2018-09-19T11:09:34.350Z,1003.13
2018-09-19T11:10:34.338Z,1003.10
2018-09-19T11:11:34.335Z,1003.12
2018-09-19T11:12:34.321Z,1003.12
2018-09-19T11:13:34.306Z,1003.16
2018-09-19T11:14:34.286Z,1003.15
2018-09-19T11:15:34.285Z,1003.20
2018-09-19T11:16:34.270Z,1003.16
2018-09-19T11:17:34.259Z,1003.19
2018-09-19T11:18:34.249Z,1003.16
2018-09-19T11:19:34.232Z,1003.18
2018-09-19T11:20:34.223Z,1003.14
2018-09-19T11:21:34.213Z,1003.08
2018-09-19T11:22:34.199Z,1003.18
2018-09-19T11:23:34.203Z,1003.14
2018-09-19T11:24:34.183Z,1003.12
2018-09-19T11:25:34.163Z,1003.10
2018-09-19T11:26:34.186Z,1003.01
2018-09-19T11:27:34.141Z,1003.11
2018-09-19T11:28:34.132Z,1003.07
2018-09-19T11:29:34.115Z,1003.05
2018-09-19T11:30:34.107Z,1003.08
2018-09-19T11:31:34.093Z,1003.07
2018-09-19T11:32:34.921Z,1003.09
2018-09-19T11:33:34.104Z,1003.07
2018-09-19T11:34:34.060Z,1003.04
2018-09-19T11:35:34.056Z,1003.07
2018-09-19T11:36:34.038Z,1003.06
2018-09-19T11:37:34.030Z,1003.09
2018-09-19T11:38:34.060Z,1002.99
2018-09-19T11:39:34.283Z,1003.02
2018-09-19T11:40:33.990Z,1002.96
2018-09-19T11:41:33.980Z,1003.02
2018-09-19T11:42:34.014Z,1003.05
2018-09-19T11:43:33.980Z,1002.94
2018-09-19T11:44:33.946Z,1003.02
2018-09-19T11:45:33.934Z,1003.03
2018-09-19T11:46:34.181Z,1003.07
2018-09-19T11:47:34.406Z,1003.02
2018-09-19T11:48:33.941Z,1003.06
2018-09-19T11:49:33.893Z,1003.11
2018-09-19T11:50:33.882Z,1003.10
2018-09-19T11:51:33.871Z,1003.14
2018-09-19T11:52:34.468Z,1003.09
2018-09-19T11:53:33.850Z,1003.14
2018-09-19T11:54:33.843Z,1003.18
2018-09-19T11:55:33.822Z,1003.15
2018-09-19T11:56:33.818Z,1003.12
2018-09-19T11:57:33.921Z,1003.05
2018-09-19T11:58:33.865Z,1003.15
2018-09-19T11:59:33.791Z,1003.10
2018-09-19T12:00:33.878Z,1003.15
2018-09-19T12:01:33.788Z,1003.09
2018-09-19T12:02:33.742Z,1003.12
2018-09-19T12:03:33.740Z,1003.03
2018-09-19T12:04:33.726Z,1003.14
2018-09-19T12:05:33.715Z,1003.15
2018-09-19T12:06:33.719Z,1003.14